Saipan Mariana Islands, Northern Mariana Islands
Current Conditions -  °F | °C
As of 12:54 AM on Wednesday 22 Oct 2014 (Local Time) from PGSN Reporting Station
Overcast Overcast  
Wind Chill: 79°   Ceiling: 4800
Heat Index: 83°   Visibility: 10mi
Dew Point: 75°   Wind: 8mph
Humidity: 88%   Direction: 60°ENE
Pressure: 29.81"   Gusts: NA
Location:  15.182°N, 145.755°E
Report Text: PGSN 211454Z 06007KT 10SM FEW021 BKN048 OVC080 26/24 A2981 RMK AO2 RAB1359E22 SLP117 P0002 60002 T02610240 58010 $
Loading
Personal Weather Stations






























Interactive Weather Map
Tropical Storm Tracking
New forecast layout! Learn more

10-Day Weather Forecast

Advertisements
Track Severe Weather on mobile